Sariego, Spain

12:30 PM CEST on August 30, 2015 (GMT +0200)
Candanal | | Change Station
CLOSE
Current Station
Personal Weather Station
Location: Villaviciosa, ASTURIAS
Elevation: 840 ft
Nearby Weather Stations

Elev 840 ft 43.45 °N, 5.57 °W | Updated 1 minute ago

Overcast
Overcast
75.6 °F
Feels Like 77 °F
N
2.0
Wind Variable Wind from SW
Gusts 2.0 mph

Today
High -- | Low -- °F
--% Chance of Precip.
Yesterday
High -- | Low -- °F
Precip. -- in
7:43 AM 9:01 PM
Full, 99% visible
Pressure 29.92 in
Visibility 1.9 miles
Clouds Few 3000 ft
Scattered Clouds 6000 ft
Heat Index 77 °F
Dew Point 68 °F
Humidity 76%
Rainfall 0.49 in
Snow Depth Not available.
UV 5 out of 12
Pollen Not available.
Air Quality Not available.
Flu Activity Not available.
METAR LEAS 301000Z VRB02KT 3000 -RA BR FEW030CB SCT060 20/20 Q1013 BECMG 7000 NSW
Pressure 29.92 in
Visibility 1.9 miles
Clouds Few 3000 ft
Scattered Clouds 6000 ft
Heat Index 77 °F
Dew Point 68 °F
Humidity 76%
Rainfall 0.49 in
Snow Depth Not available.
UV 5 out of 12
Pollen Not available.
Air Quality Not available.
Flu Activity Not available.
METAR LEAS 301000Z VRB02KT 3000 -RA BR FEW030CB SCT060 20/20 Q1013 BECMG 7000 NSW

10-Day Weather Forecast

×

Almanac

Astronomy

Aug. 30, 2015 Rise Set
Actual Time
Civil Twilight
Nautical Twilight
Astronomical Twilight
Moon
Length of Visible Light
Length of Day
Tomorrow will be .
, % of the Moon is Illuminated

Today's Extremes

Country Highs Country Lows

Community

WunderPhotos

Upload Photos

1,850,923 photos uploaded!

WunderBlogs® & News

Nearby

Air Quality

  Air Quality AQ Index Pollutant
Not available.

Snow Depth

Station Depth Elevation

Earthquake Activity

City Distance Mag. Time & Date
Minimum magnitude displayed is 2.5.

Coastal Water Temperatures

Place Temperature

Stations

Nearby Weather Stations

Station Location Temp. Windchill Dew Point Humidity Wind Precip. Elev Updated Type